createdAt,value
2022-12-11T00:02:07.410Z,5.02
2022-12-11T00:04:37.249Z,4.80
2022-12-11T00:07:05.837Z,4.30
2022-12-11T00:09:36.016Z,5.20
2022-12-11T00:12:05.319Z,5.28
2022-12-11T00:14:33.901Z,5.36
2022-12-11T00:17:02.395Z,5.17
2022-12-11T00:19:30.956Z,5.24
2022-12-11T00:22:00.736Z,5.04
2022-12-11T00:24:30.126Z,5.14
2022-12-11T00:26:58.664Z,4.83
2022-12-11T00:29:27.026Z,5.22
2022-12-11T00:31:55.721Z,5.19
2022-12-11T00:34:26.999Z,5.16
2022-12-11T00:36:55.392Z,5.18
2022-12-11T00:39:25.159Z,5.13
2022-12-11T00:41:53.705Z,5.01
2022-12-11T00:44:22.587Z,5.29
2022-12-11T00:46:51.103Z,5.11
2022-12-11T00:49:19.685Z,5.28
2022-12-11T00:51:48.283Z,5.19
2022-12-11T00:54:16.850Z,4.77
2022-12-11T00:56:46.685Z,5.24
2022-12-11T00:59:15.210Z,5.24
2022-12-11T01:01:43.763Z,5.15
2022-12-11T01:04:12.255Z,5.18
2022-12-11T01:06:41.124Z,4.92
2022-12-11T01:09:26.965Z,5.19
2022-12-11T01:11:56.763Z,4.33
2022-12-11T01:14:25.236Z,5.05
2022-12-11T01:16:53.849Z,4.98
2022-12-11T01:19:22.298Z,4.82
2022-12-11T01:21:50.907Z,4.86
2022-12-11T01:24:19.591Z,4.91
2022-12-11T01:26:48.372Z,4.98
2022-12-11T01:29:20.648Z,4.87
2022-12-11T01:31:49.416Z,5.01
2022-12-11T01:34:17.917Z,5.02
2022-12-11T01:36:49.586Z,4.94
2022-12-11T01:39:18.100Z,4.44
2022-12-11T01:41:47.050Z,4.70
2022-12-11T01:45:07.557Z,4.86
2022-12-11T01:47:37.762Z,4.78
2022-12-11T01:50:07.168Z,4.79
2022-12-11T01:52:35.940Z,4.58
2022-12-11T01:55:04.537Z,4.96
2022-12-11T01:57:33.667Z,5.05
2022-12-11T02:00:02.130Z,4.77
2022-12-11T02:02:43.036Z,4.50
2022-12-11T02:05:11.928Z,4.75
2022-12-11T02:07:45.756Z,5.12
2022-12-11T02:10:14.906Z,5.11
2022-12-11T02:12:56.670Z,5.20
2022-12-11T02:15:33.236Z,4.81
2022-12-11T02:18:28.254Z,5.09
2022-12-11T02:21:04.946Z,5.21
2022-12-11T02:23:57.905Z,5.16
2022-12-11T02:26:49.404Z,5.06
2022-12-11T02:29:24.266Z,5.06
2022-12-11T02:31:59.042Z,5.15
2022-12-11T02:34:33.961Z,5.15
2022-12-11T02:37:07.393Z,5.13
2022-12-11T02:39:40.587Z,5.17
2022-12-11T02:42:11.277Z,5.19
2022-12-11T02:44:42.532Z,5.19
2022-12-11T02:47:15.423Z,5.20
2022-12-11T02:49:48.727Z,4.44
2022-12-11T02:52:21.621Z,5.28
2022-12-11T02:54:53.329Z,5.07
2022-12-11T02:57:31.030Z,5.15
2022-12-11T03:00:00.876Z,5.06
2022-12-11T03:02:29.383Z,4.97
2022-12-11T03:04:57.875Z,4.96
2022-12-11T03:07:31.050Z,4.78
2022-12-11T03:09:59.625Z,4.95
2022-12-11T03:12:31.615Z,4.90
2022-12-11T03:15:03.669Z,4.86
2022-12-11T03:17:37.071Z,4.68
2022-12-11T03:20:14.188Z,4.54
2022-12-11T03:22:50.108Z,4.81
2022-12-11T03:25:23.806Z,4.94
2022-12-11T03:27:58.633Z,4.86
2022-12-11T03:30:30.434Z,5.05
2022-12-11T03:33:04.748Z,4.95
2022-12-11T03:35:37.131Z,5.09
2022-12-11T03:38:11.522Z,5.13
2022-12-11T03:40:44.395Z,5.02
2022-12-11T03:43:13.254Z,4.99
2022-12-11T03:45:44.822Z,5.21
2022-12-11T03:48:14.903Z,5.17
2022-12-11T03:50:44.671Z,5.21
2022-12-11T03:53:13.864Z,5.28
2022-12-11T03:55:43.622Z,5.28
2022-12-11T03:58:12.208Z,5.23
2022-12-11T04:00:42.226Z,5.23
2022-12-11T04:03:17.907Z,5.25
2022-12-11T04:05:48.595Z,5.34
2022-12-11T04:08:17.696Z,5.28
2022-12-11T04:10:46.245Z,5.32
2022-12-11T04:13:14.957Z,5.38
2022-12-11T04:15:43.768Z,5.32
2022-12-11T04:18:29.848Z,5.35
2022-12-11T04:21:15.997Z,5.31
2022-12-11T04:24:01.800Z,5.33
2022-12-11T04:26:30.184Z,5.17
2022-12-11T04:28:58.581Z,5.21
2022-12-11T04:31:29.957Z,5.18
2022-12-11T04:33:58.426Z,5.18
2022-12-11T04:36:26.798Z,4.99
2022-12-11T04:38:55.141Z,5.00
2022-12-11T04:41:23.557Z,5.15
2022-12-11T04:43:52.017Z,4.83
2022-12-11T04:46:23.409Z,5.11
2022-12-11T04:48:57.667Z,5.09
2022-12-11T04:51:26.447Z,4.83
2022-12-11T04:53:56.349Z,4.16
2022-12-11T04:56:24.792Z,4.88
2022-12-11T04:58:53.525Z,4.94
2022-12-11T05:01:24.012Z,5.01
2022-12-11T05:03:53.677Z,4.88
2022-12-11T05:06:22.062Z,4.97
2022-12-11T05:08:50.409Z,4.90
2022-12-11T05:11:18.763Z,4.90
2022-12-11T05:13:47.882Z,4.90
2022-12-11T05:16:18.054Z,4.80
2022-12-11T05:18:49.386Z,4.65
2022-12-11T05:21:19.459Z,4.50
2022-12-11T05:23:47.940Z,4.64
2022-12-11T05:26:18.891Z,4.65
2022-12-11T05:28:48.155Z,4.65
2022-12-11T05:31:20.579Z,4.24
2022-12-11T05:33:51.237Z,4.53
2022-12-11T05:36:25.057Z,4.49
2022-12-11T05:38:54.857Z,4.66
2022-12-11T05:41:25.483Z,4.61
2022-12-11T05:43:53.816Z,4.35
2022-12-11T05:46:24.468Z,4.29
2022-12-11T05:48:55.727Z,4.38
2022-12-11T05:51:25.813Z,4.29
2022-12-11T05:53:55.482Z,4.08
2022-12-11T05:56:26.322Z,4.36
2022-12-11T05:58:56.128Z,4.38
2022-12-11T06:01:28.797Z,4.23
2022-12-11T06:03:58.438Z,4.19
2022-12-11T06:06:29.523Z,4.11
2022-12-11T06:08:59.934Z,4.24
2022-12-11T06:11:31.269Z,4.24
2022-12-11T06:14:00.524Z,4.20
2022-12-11T06:16:28.980Z,3.97
2022-12-11T06:18:58.567Z,3.96
2022-12-11T06:21:31.536Z,3.98
2022-12-11T06:24:02.776Z,4.08
2022-12-11T06:26:32.052Z,3.90
2022-12-11T06:29:00.701Z,4.41
2022-12-11T06:31:29.335Z,4.38
2022-12-11T06:33:57.717Z,4.37
2022-12-11T06:36:28.067Z,4.36
2022-12-11T06:38:56.669Z,4.41
2022-12-11T06:41:25.152Z,4.46
2022-12-11T06:43:53.465Z,4.35
2022-12-11T06:46:22.454Z,4.30
2022-12-11T06:48:51.115Z,4.67
2022-12-11T06:51:21.898Z,4.66
2022-12-11T06:53:55.796Z,4.27
2022-12-11T06:56:25.513Z,3.78
2022-12-11T06:58:54.033Z,4.38
2022-12-11T07:01:24.864Z,4.32
2022-12-11T07:03:54.984Z,4.19
2022-12-11T07:06:24.354Z,3.91
2022-12-11T07:08:54.542Z,4.11
2022-12-11T07:11:23.251Z,4.16
2022-12-11T07:13:54.761Z,4.09
2022-12-11T07:16:23.211Z,4.09
2022-12-11T07:18:52.637Z,4.09
2022-12-11T07:21:22.159Z,3.88
2022-12-11T07:23:51.447Z,3.93
2022-12-11T07:26:23.038Z,3.97
2022-12-11T07:28:51.826Z,4.16
2022-12-11T07:31:24.047Z,4.17
2022-12-11T07:33:55.994Z,4.28
2022-12-11T07:36:25.271Z,4.39
2022-12-11T07:38:53.987Z,4.15
2022-12-11T07:41:24.859Z,4.23
2022-12-11T07:43:56.376Z,4.47
2022-12-11T07:46:29.575Z,4.48
2022-12-11T07:48:57.950Z,4.40
2022-12-11T07:51:28.762Z,4.55
2022-12-11T07:53:59.692Z,4.54
2022-12-11T07:56:31.926Z,4.56
2022-12-11T07:59:01.418Z,4.59
2022-12-11T08:01:32.605Z,4.52
2022-12-11T08:04:00.951Z,4.71
2022-12-11T08:06:31.870Z,4.78
2022-12-11T08:09:02.001Z,4.84
2022-12-11T08:11:32.109Z,4.86
2022-12-11T08:14:01.069Z,4.86
2022-12-11T08:16:29.731Z,4.63
2022-12-11T08:18:58.973Z,4.94
2022-12-11T08:21:29.314Z,5.01
2022-12-11T08:23:58.341Z,4.83
2022-12-11T08:26:29.188Z,5.09
2022-12-11T08:28:59.624Z,5.03
2022-12-11T08:31:28.427Z,5.02
2022-12-11T08:33:58.364Z,5.01
2022-12-11T08:36:27.157Z,4.92
2022-12-11T08:38:56.889Z,5.00
2022-12-11T08:41:28.424Z,5.03
2022-12-11T08:44:00.453Z,5.06
2022-12-11T08:46:31.539Z,4.72
2022-12-11T08:49:00.694Z,4.50
2022-12-11T08:51:30.798Z,5.08
2022-12-11T08:54:01.852Z,3.25
2022-12-11T08:56:30.797Z,5.20
2022-12-11T08:59:04.195Z,5.22
2022-12-11T09:01:32.757Z,5.18
2022-12-11T09:04:01.128Z,5.28
2022-12-11T09:06:33.889Z,5.29
2022-12-11T09:09:03.279Z,5.31
2022-12-11T09:11:35.650Z,4.74
2022-12-11T09:14:08.120Z,5.18
2022-12-11T09:16:41.651Z,5.32
2022-12-11T09:19:14.375Z,5.29
2022-12-11T09:21:44.198Z,5.08
2022-12-11T09:24:14.006Z,5.09
2022-12-11T09:26:43.409Z,4.81
2022-12-11T09:29:14.497Z,4.92
2022-12-11T09:31:43.308Z,4.86
2022-12-11T09:34:14.749Z,5.04
2022-12-11T09:36:44.799Z,5.02
2022-12-11T09:39:15.021Z,4.80
2022-12-11T09:41:54.413Z,4.95
2022-12-11T09:44:35.403Z,5.12
2022-12-11T09:47:03.928Z,5.14
2022-12-11T09:49:39.824Z,5.15
2022-12-11T09:52:16.035Z,5.10
2022-12-11T09:54:50.727Z,5.25
2022-12-11T09:57:46.879Z,5.27
2022-12-11T10:00:28.068Z,2.86
2022-12-11T10:03:29.244Z,5.28
2022-12-11T10:06:07.543Z,5.33
2022-12-11T10:08:43.678Z,5.26
2022-12-11T10:11:44.714Z,4.97
2022-12-11T10:14:21.099Z,5.14
2022-12-11T10:16:55.903Z,5.30
2022-12-11T10:19:29.925Z,5.10
2022-12-11T10:21:59.945Z,5.14
2022-12-11T10:25:09.288Z,5.25
2022-12-11T10:27:31.329Z,4.59
2022-12-11T10:30:09.095Z,5.08
2022-12-11T10:32:51.802Z,4.93
2022-12-11T10:35:31.347Z,4.94
2022-12-11T10:38:13.474Z,4.69
2022-12-11T10:40:48.490Z,5.05
2022-12-11T10:43:17.021Z,4.13
2022-12-11T10:45:53.529Z,5.06
2022-12-11T10:48:23.782Z,4.32
2022-12-11T10:51:01.924Z,5.11
2022-12-11T10:53:31.748Z,3.26
2022-12-11T10:56:01.136Z,5.10
2022-12-11T10:58:34.023Z,5.01
2022-12-11T11:01:09.088Z,5.13
2022-12-11T11:03:55.605Z,5.06
2022-12-11T11:06:25.894Z,5.40
2022-12-11T11:08:56.651Z,5.40
2022-12-11T11:11:33.983Z,5.09
2022-12-11T11:14:20.578Z,5.39
2022-12-11T11:16:52.394Z,5.34
2022-12-11T11:19:26.600Z,5.41
2022-12-11T11:21:57.959Z,5.22
2022-12-11T11:24:31.732Z,5.23
2022-12-11T11:27:15.495Z,4.90
2022-12-11T11:29:46.681Z,5.34
2022-12-11T11:32:24.318Z,5.34
2022-12-11T11:34:54.168Z,5.33
2022-12-11T11:37:34.939Z,5.38
2022-12-11T11:40:12.356Z,5.35
2022-12-11T11:42:48.339Z,5.36
2022-12-11T11:45:23.049Z,5.39
2022-12-11T11:48:03.134Z,5.36
2022-12-11T11:50:37.913Z,5.38
2022-12-11T11:53:13.321Z,5.48
2022-12-11T11:55:50.886Z,5.43
2022-12-11T11:58:24.219Z,5.46
2022-12-11T12:00:55.174Z,5.42
2022-12-11T12:03:26.209Z,5.45
2022-12-11T12:06:04.165Z,5.35
2022-12-11T12:08:46.221Z,5.37
2022-12-11T12:11:26.053Z,5.29
2022-12-11T12:14:22.543Z,5.34
2022-12-11T12:17:07.759Z,5.42
2022-12-11T12:19:55.714Z,5.47
2022-12-11T12:22:52.057Z,5.30
2022-12-11T12:25:28.173Z,5.37
2022-12-11T12:28:07.186Z,5.18
2022-12-11T12:30:47.240Z,5.21
2022-12-11T12:33:30.033Z,4.98
2022-12-11T12:36:08.943Z,4.88
2022-12-11T12:38:52.483Z,5.19
2022-12-11T12:41:28.113Z,5.01
2022-12-11T12:44:10.842Z,5.27
2022-12-11T12:46:51.913Z,5.33
2022-12-11T12:49:35.880Z,5.19
2022-12-11T12:52:06.716Z,4.92
2022-12-11T12:54:37.723Z,5.16
2022-12-11T12:57:06.478Z,5.07
2022-12-11T12:59:34.811Z,4.98
2022-12-11T13:02:06.698Z,4.83
2022-12-11T13:04:59.192Z,3.95
2022-12-11T13:07:31.214Z,4.68
2022-12-11T13:10:09.604Z,4.99
2022-12-11T13:12:46.684Z,4.93
2022-12-11T13:15:40.804Z,4.90
2022-12-11T13:18:36.383Z,2.70
2022-12-11T13:21:27.127Z,5.02
2022-12-11T13:23:55.994Z,4.83
2022-12-11T13:26:34.686Z,5.07
2022-12-11T13:29:03.092Z,4.76
2022-12-11T13:31:38.075Z,5.14
2022-12-11T13:34:18.496Z,5.17
2022-12-11T13:36:51.805Z,5.23
2022-12-11T13:39:24.528Z,5.16
2022-12-11T13:41:59.357Z,4.91
2022-12-11T13:44:32.881Z,5.32
2022-12-11T13:47:04.415Z,5.39
2022-12-11T13:49:38.529Z,5.40
2022-12-11T13:52:08.335Z,5.34
2022-12-11T13:54:37.589Z,4.97
2022-12-11T13:57:18.585Z,5.38
2022-12-11T13:59:51.016Z,5.15
2022-12-11T14:02:24.530Z,4.93
2022-12-11T14:04:57.808Z,5.32
2022-12-11T14:07:30.282Z,5.10
2022-12-11T14:10:04.366Z,5.25
2022-12-11T14:12:34.389Z,5.16
2022-12-11T14:15:05.733Z,5.15
2022-12-11T14:17:36.600Z,5.41
2022-12-11T14:20:08.445Z,5.44
2022-12-11T14:22:37.041Z,5.38
2022-12-11T14:25:23.391Z,4.47
2022-12-11T14:27:56.585Z,5.40
2022-12-11T14:30:28.862Z,4.69
2022-12-11T14:33:00.543Z,5.38
2022-12-11T14:35:38.399Z,5.20
2022-12-11T14:38:16.257Z,5.40
2022-12-11T14:40:51.518Z,5.16
2022-12-11T14:43:26.805Z,5.20
2022-12-11T14:46:00.518Z,5.29
2022-12-11T14:48:33.500Z,5.26
2022-12-11T14:51:06.836Z,5.33
2022-12-11T14:53:39.214Z,5.04
2022-12-11T14:56:15.403Z,5.21
2022-12-11T14:58:55.304Z,5.18
2022-12-11T15:01:27.787Z,5.19
2022-12-11T15:04:08.682Z,5.13
2022-12-11T15:06:45.904Z,5.12
2022-12-11T15:09:21.388Z,5.10
2022-12-11T15:11:51.607Z,4.84
2022-12-11T15:14:24.149Z,5.03
2022-12-11T15:16:55.450Z,4.99
2022-12-11T15:19:29.681Z,4.97
2022-12-11T15:22:05.029Z,4.52
2022-12-11T15:24:39.308Z,4.90
2022-12-11T15:27:08.406Z,5.00
2022-12-11T15:29:43.449Z,3.97
2022-12-11T15:32:20.263Z,4.89
2022-12-11T15:34:51.223Z,5.01
2022-12-11T15:37:25.491Z,4.80
2022-12-11T15:39:57.475Z,4.82
2022-12-11T15:42:32.583Z,4.85
2022-12-11T15:45:02.991Z,2.46
2022-12-11T15:47:32.901Z,5.05
2022-12-11T15:50:08.661Z,5.00
2022-12-11T15:52:37.060Z,5.07
2022-12-11T15:55:06.374Z,4.86
2022-12-11T15:57:35.451Z,5.09
2022-12-11T16:00:07.469Z,5.15
2022-12-11T16:02:36.007Z,5.10
2022-12-11T16:05:04.859Z,5.08
2022-12-11T16:07:33.349Z,4.45
2022-12-11T16:10:02.198Z,5.13
2022-12-11T16:12:30.634Z,5.06
2022-12-11T16:14:59.032Z,4.91
2022-12-11T16:17:29.057Z,5.08
2022-12-11T16:19:57.599Z,4.69
2022-12-11T16:22:25.957Z,4.83
2022-12-11T16:24:55.829Z,4.66
2022-12-11T16:27:24.910Z,5.17
2022-12-11T16:29:53.481Z,5.20
2022-12-11T16:32:21.995Z,5.02
2022-12-11T16:34:51.702Z,4.98
2022-12-11T16:37:20.204Z,5.11
2022-12-11T16:39:48.730Z,4.92
2022-12-11T16:42:17.027Z,4.96
2022-12-11T16:44:45.459Z,5.04
2022-12-11T16:47:13.922Z,5.00
2022-12-11T16:49:43.172Z,5.15
2022-12-11T16:52:15.352Z,5.20
2022-12-11T16:54:47.649Z,5.18
2022-12-11T16:57:15.979Z,5.21
2022-12-11T16:59:44.330Z,5.18
2022-12-11T17:02:13.276Z,4.96
2022-12-11T17:04:41.986Z,4.85
2022-12-11T17:07:10.434Z,3.92
2022-12-11T17:09:40.382Z,4.00
2022-12-11T17:12:10.071Z,4.40
2022-12-11T17:14:38.522Z,4.33
2022-12-11T17:17:07.115Z,3.76
2022-12-11T17:19:35.493Z,4.29
2022-12-11T17:22:04.632Z,4.14
2022-12-11T17:24:33.937Z,4.20
2022-12-11T17:27:03.663Z,4.10
2022-12-11T17:29:32.596Z,4.11
2022-12-11T17:32:03.176Z,4.23
2022-12-11T17:34:37.871Z,4.38
2022-12-11T17:37:07.228Z,4.34
2022-12-11T17:39:35.592Z,4.45
2022-12-11T17:42:05.665Z,4.54
2022-12-11T17:44:34.535Z,4.67
2022-12-11T17:47:07.681Z,4.57
2022-12-11T17:49:39.481Z,4.66
2022-12-11T17:52:08.127Z,4.61
2022-12-11T17:54:36.512Z,4.67
2022-12-11T17:57:06.823Z,5.00
2022-12-11T17:59:35.335Z,5.05
2022-12-11T18:02:03.721Z,5.11
2022-12-11T18:04:32.255Z,5.15
2022-12-11T18:07:00.669Z,5.08
2022-12-11T18:09:29.130Z,4.60
2022-12-11T18:11:57.776Z,3.77
2022-12-11T18:14:27.603Z,4.10
2022-12-11T18:16:55.969Z,3.70
2022-12-11T18:19:27.192Z,4.03
2022-12-11T18:21:56.664Z,3.79
2022-12-11T18:24:25.895Z,1.48
2022-12-11T18:26:54.513Z,3.37
2022-12-11T18:29:22.890Z,3.28
2022-12-11T18:31:52.856Z,3.25
2022-12-11T18:34:21.458Z,3.13
2022-12-11T18:36:49.796Z,2.99
2022-12-11T18:39:20.649Z,3.06
2022-12-11T18:42:03.434Z,2.39
2022-12-11T18:44:37.844Z,2.72
2022-12-11T18:47:07.899Z,2.94
2022-12-11T18:49:36.486Z,2.72
2022-12-11T18:52:05.585Z,2.88
2022-12-11T18:54:34.087Z,2.94
2022-12-11T18:57:02.404Z,2.88
2022-12-11T18:59:30.827Z,2.70
2022-12-11T19:01:59.286Z,2.78
2022-12-11T19:04:29.192Z,2.50
2022-12-11T19:06:57.914Z,2.64
2022-12-11T19:09:26.558Z,2.63
2022-12-11T19:11:55.846Z,2.50
2022-12-11T19:14:24.598Z,2.84
2022-12-11T19:16:53.538Z,2.64
2022-12-11T19:19:23.242Z,2.81
2022-12-11T19:21:53.092Z,2.98
2022-12-11T19:24:23.827Z,2.84
2022-12-11T19:26:53.085Z,2.88
2022-12-11T19:29:27.782Z,2.82
2022-12-11T19:31:56.773Z,2.69
2022-12-11T19:34:26.045Z,2.83
2022-12-11T19:36:57.302Z,2.63
2022-12-11T19:39:25.671Z,1.95
2022-12-11T19:41:53.968Z,2.43
2022-12-11T19:44:23.013Z,2.65
2022-12-11T19:46:51.554Z,2.85
2022-12-11T19:49:20.063Z,2.91
2022-12-11T19:51:48.685Z,2.56
2022-12-11T19:54:19.817Z,2.79
2022-12-11T19:56:48.487Z,2.44
2022-12-11T19:59:18.104Z,2.40
2022-12-11T20:01:49.397Z,2.57
2022-12-11T20:04:19.967Z,1.78
2022-12-11T20:06:48.909Z,2.44
2022-12-11T20:09:22.295Z,2.35
2022-12-11T20:11:50.777Z,2.63
2022-12-11T20:14:23.453Z,-0.17
2022-12-11T20:17:12.805Z,1.16
2022-12-11T20:19:43.071Z,2.55
2022-12-11T20:22:11.736Z,2.78
2022-12-11T20:24:41.875Z,2.33
2022-12-11T20:27:12.379Z,2.63
2022-12-11T20:29:40.930Z,2.68
2022-12-11T20:32:12.275Z,2.82
2022-12-11T20:34:41.255Z,2.85
2022-12-11T20:37:09.735Z,2.95
2022-12-11T20:39:40.102Z,2.70
2022-12-11T20:42:11.118Z,2.29
2022-12-11T20:44:42.798Z,2.58
2022-12-11T20:47:15.700Z,2.59
2022-12-11T20:49:44.065Z,2.61
2022-12-11T20:52:12.621Z,2.46
2022-12-11T20:54:42.465Z,2.77
2022-12-11T20:57:11.333Z,2.56
2022-12-11T20:59:40.136Z,2.82
2022-12-11T21:02:09.505Z,2.79
2022-12-11T21:04:41.060Z,2.82
2022-12-11T21:07:10.564Z,2.81
2022-12-11T21:09:41.017Z,2.70
2022-12-11T21:12:09.637Z,3.11
2022-12-11T21:14:39.206Z,2.99
2022-12-11T21:17:07.626Z,3.01
2022-12-11T21:19:36.006Z,3.25
2022-12-11T21:22:04.682Z,2.58
2022-12-11T21:24:33.109Z,3.16
2022-12-11T21:27:02.820Z,3.13
2022-12-11T21:29:31.307Z,2.92
2022-12-11T21:32:02.781Z,2.98
2022-12-11T21:34:31.246Z,2.97
2022-12-11T21:36:59.900Z,3.03
2022-12-11T21:39:29.548Z,3.13
2022-12-11T21:42:00.511Z,3.28
2022-12-11T21:47:19.872Z,3.34
2022-12-11T21:49:48.516Z,2.41
2022-12-11T21:52:16.946Z,3.11
2022-12-11T21:54:45.376Z,3.03
2022-12-11T21:57:14.126Z,3.11
2022-12-11T21:59:43.921Z,3.03
2022-12-11T22:02:12.739Z,3.23
2022-12-11T22:04:42.031Z,3.06
2022-12-11T22:07:10.391Z,3.20
2022-12-11T22:09:38.799Z,3.00
2022-12-11T22:12:07.764Z,2.91
2022-12-11T22:14:36.875Z,3.25
2022-12-11T22:17:06.831Z,3.36
2022-12-11T22:19:35.159Z,3.41
2022-12-11T22:22:03.588Z,3.27
2022-12-11T22:24:32.221Z,2.99
2022-12-11T22:27:01.016Z,3.40
2022-12-11T22:29:29.752Z,3.44
2022-12-11T22:32:00.788Z,3.06
2022-12-11T22:34:30.557Z,3.08
2022-12-11T22:36:58.832Z,3.09
2022-12-11T22:39:27.233Z,3.50
2022-12-11T22:41:55.551Z,3.36
2022-12-11T22:44:24.217Z,3.07
2022-12-11T22:46:52.788Z,3.44
2022-12-11T22:49:23.138Z,3.40
2022-12-11T22:51:53.026Z,3.41
2022-12-11T22:54:24.733Z,3.37
2022-12-11T22:56:53.226Z,3.59
2022-12-11T22:59:21.523Z,3.61
2022-12-11T23:01:49.971Z,3.84
2022-12-11T23:04:18.476Z,3.76
2022-12-11T23:06:46.904Z,3.63
2022-12-11T23:09:16.758Z,3.47
2022-12-11T23:11:45.911Z,3.46
2022-12-11T23:14:19.295Z,3.48
2022-12-11T23:16:49.682Z,3.54
2022-12-11T23:19:25.243Z,3.43
2022-12-11T23:21:54.124Z,3.13
2022-12-11T23:24:24.911Z,3.63
2022-12-11T23:26:53.349Z,3.67
2022-12-11T23:29:21.775Z,3.63
2022-12-11T23:31:50.329Z,3.74
2022-12-11T23:34:18.686Z,3.43
2022-12-11T23:36:47.276Z,3.89
2022-12-11T23:39:15.712Z,3.59
2022-12-11T23:41:45.621Z,3.10
2022-12-11T23:44:14.048Z,3.84
2022-12-11T23:46:44.925Z,3.79
2022-12-11T23:49:13.390Z,3.92
2022-12-11T23:51:43.691Z,3.93
2022-12-11T23:54:12.057Z,3.92
2022-12-11T23:56:40.557Z,3.90
2022-12-11T23:59:13.317Z,3.99
